Time;durP1;ratioP1;P1;durP2;ratioP2;P2;SDS_P1;SDS_P2;PMS_P1;PMS_P2;Temp;Humidity;BMP_temperature;BMP_pressure;BME280_temperature;BME280_humidity;BME280_pressure;Samples;Min_cycle;Max_cycle;Signal;HPM_P1;HPM_P2
2024/02/22 00:00:39;;;;;;;6.60;5.03;;;8.90;99.90;;;;;;5071376;28;20207;-71
2024/02/22 00:03:06;;;;;;;7.30;5.78;;;8.90;99.90;;;;;;5083072;28;20219;-72
2024/02/22 00:05:33;;;;;;;9.07;5.32;;;8.90;99.90;;;;;;5074684;28;20257;-73
2024/02/22 00:08:00;;;;;;;11.93;6.97;;;9.00;99.90;;;;;;5079048;28;20203;-75
2024/02/22 00:10:29;;;;;;;6.88;5.50;;;8.90;99.90;;;;;;5069018;28;20203;-74
2024/02/22 00:12:56;;;;;;;8.52;5.95;;;9.00;99.90;;;;;;5068339;28;20229;-73
2024/02/22 00:15:24;;;;;;;8.02;5.47;;;9.00;99.90;;;;;;5066148;28;20260;-77
2024/02/22 00:17:52;;;;;;;7.55;6.22;;;9.00;99.90;;;;;;5075565;28;20712;-75
2024/02/22 00:20:20;;;;;;;9.82;6.32;;;8.90;99.90;;;;;;5071874;28;20207;-73
2024/02/22 00:22:47;;;;;;;9.05;7.15;;;8.90;99.90;;;;;;5073246;28;20235;-72
2024/02/22 00:25:15;;;;;;;8.98;7.10;;;9.00;99.90;;;;;;5073347;28;20546;-73
2024/02/22 00:27:42;;;;;;;9.85;7.45;;;9.00;99.90;;;;;;5066924;28;20689;-72
2024/02/22 00:30:12;;;;;;;8.93;6.32;;;9.00;99.90;;;;;;5067844;28;20249;-73
2024/02/22 00:32:39;;;;;;;9.05;6.15;;;9.00;99.90;;;;;;5084982;28;20223;-73
2024/02/22 00:35:10;;;;;;;6.88;6.22;;;9.00;99.90;;;;;;5079679;28;20210;-72
2024/02/22 00:37:37;;;;;;;6.18;5.15;;;9.00;99.90;;;;;;5073084;28;20754;-72
2024/02/22 00:40:04;;;;;;;9.15;6.13;;;9.00;99.90;;;;;;5061772;28;20265;-73
2024/02/22 00:42:31;;;;;;;8.98;6.05;;;9.00;99.90;;;;;;5075289;28;20254;-74
2024/02/22 00:44:58;;;;;;;6.75;5.93;;;9.00;99.90;;;;;;5078054;28;20231;-74
2024/02/22 00:47:26;;;;;;;10.88;6.38;;;9.00;99.90;;;;;;5069701;28;20266;-72
2024/02/22 00:49:53;;;;;;;11.30;5.30;;;9.00;99.90;;;;;;5065265;28;20543;-72
2024/02/22 00:52:21;;;;;;;11.02;6.50;;;9.10;99.90;;;;;;5072296;28;20237;-72
2024/02/22 00:54:48;;;;;;;7.82;6.40;;;9.10;99.90;;;;;;5060078;28;20269;-72
2024/02/22 00:57:15;;;;;;;7.68;6.35;;;9.20;99.90;;;;;;5058879;28;20204;-73
2024/02/22 00:59:42;;;;;;;8.73;6.40;;;9.20;99.90;;;;;;5062791;28;20575;-74
2024/02/22 01:02:09;;;;;;;6.80;5.68;;;9.10;99.90;;;;;;5063293;28;20261;-73
2024/02/22 01:04:37;;;;;;;7.30;6.07;;;9.10;99.90;;;;;;5061407;28;20203;-73
2024/02/22 01:07:04;;;;;;;8.60;6.32;;;9.00;99.90;;;;;;5078011;28;20650;-71
2024/02/22 01:09:32;;;;;;;6.15;5.55;;;9.00;99.90;;;;;;5062932;28;20258;-73
2024/02/22 01:11:59;;;;;;;6.45;5.32;;;9.10;99.90;;;;;;5071509;28;20199;-73
2024/02/22 01:14:26;;;;;;;12.48;7.45;;;9.10;99.90;;;;;;5067779;28;20223;-74
2024/02/22 01:16:53;;;;;;;16.20;6.50;;;9.10;99.90;;;;;;5073214;28;20666;-73
2024/02/22 01:19:20;;;;;;;7.40;6.03;;;9.10;99.90;;;;;;5056499;28;20224;-75
2024/02/22 01:21:47;;;;;;;12.85;8.15;;;9.10;99.90;;;;;;5068601;28;20536;-73
2024/02/22 01:24:14;;;;;;;12.77;7.47;;;9.20;99.90;;;;;;5059352;28;20255;-73
2024/02/22 01:26:42;;;;;;;8.65;5.90;;;9.20;99.90;;;;;;5068531;28;20223;-72
2024/02/22 01:29:10;;;;;;;11.77;7.75;;;9.20;99.90;;;;;;5064003;28;20200;-75
2024/02/22 01:31:37;;;;;;;7.72;6.93;;;9.20;99.90;;;;;;5059724;28;20207;-75
2024/02/22 01:34:04;;;;;;;10.15;7.70;;;9.20;99.90;;;;;;5074435;28;20227;-73
2024/02/22 01:36:31;;;;;;;9.90;7.70;;;9.20;99.90;;;;;;5070990;28;20580;-74
2024/02/22 01:38:58;;;;;;;11.02;8.73;;;9.10;99.90;;;;;;5073677;28;20658;-74
2024/02/22 01:41:25;;;;;;;12.70;8.23;;;9.10;99.90;;;;;;5060934;28;20203;-74
2024/02/22 01:43:53;;;;;;;8.05;7.22;;;9.10;99.90;;;;;;5062316;28;20251;-76
2024/02/22 01:46:20;;;;;;;9.45;7.75;;;9.10;99.90;;;;;;5063818;28;20244;-72
2024/02/22 01:48:48;;;;;;;8.25;7.35;;;9.20;99.90;;;;;;5071258;28;20199;-72
2024/02/22 01:51:15;;;;;;;10.52;7.13;;;9.10;99.90;;;;;;5065020;28;20552;-74
2024/02/22 01:53:42;;;;;;;9.55;8.55;;;9.10;99.90;;;;;;5063207;28;20219;-75
2024/02/22 01:56:10;;;;;;;10.15;8.43;;;9.10;99.90;;;;;;5073020;28;20256;-76
2024/02/22 01:58:39;;;;;;;9.68;8.45;;;9.20;99.90;;;;;;5147623;22;20586;-74
2024/02/22 02:01:08;;;;;;;14.45;8.75;;;9.20;99.90;;;;;;5086945;28;20742;-72
2024/02/22 02:03:35;;;;;;;11.10;9.25;;;9.20;99.90;;;;;;5089970;28;20579;-75
2024/02/22 02:06:02;;;;;;;8.10;7.30;;;9.20;99.90;;;;;;5080864;28;20234;-75
2024/02/22 02:08:30;;;;;;;9.52;8.63;;;9.20;99.90;;;;;;5085553;28;20221;-72
2024/02/22 02:10:57;;;;;;;11.57;9.70;;;9.30;99.90;;;;;;5078020;28;20278;-74
2024/02/22 02:13:24;;;;;;;13.57;10.63;;;9.30;99.90;;;;;;5078816;28;20606;-73
2024/02/22 02:15:51;;;;;;;9.02;8.23;;;9.20;99.90;;;;;;5079631;28;20260;-73
2024/02/22 02:18:19;;;;;;;12.30;9.63;;;9.20;99.90;;;;;;5085893;28;20258;-73
2024/02/22 02:20:51;;;;;;;12.88;10.23;;;9.20;99.90;;;;;;5082704;28;20618;-72
2024/02/22 02:23:28;;;;;;;11.15;10.05;;;9.20;99.90;;;;;;5074774;28;20652;-73
2024/02/22 02:25:57;;;;;;;11.48;10.27;;;9.20;99.90;;;;;;5074760;28;20719;-72
2024/02/22 02:28:24;;;;;;;12.52;10.90;;;9.20;99.90;;;;;;5088757;28;20286;-73
2024/02/22 02:30:52;;;;;;;10.65;9.57;;;9.20;99.90;;;;;;5080133;28;20273;-74
2024/02/22 02:33:18;;;;;;;10.15;9.10;;;9.20;99.90;;;;;;5077697;28;20238;-73
2024/02/22 02:35:45;;;;;;;11.68;10.40;;;9.30;99.90;;;;;;5082653;28;20249;-73
2024/02/22 02:38:12;;;;;;;12.25;11.05;;;9.30;99.90;;;;;;5079075;28;20199;-75
2024/02/22 02:40:39;;;;;;;11.98;10.80;;;9.30;99.90;;;;;;5072736;28;20203;-74
2024/02/22 02:43:08;;;;;;;10.60;9.60;;;9.30;99.90;;;;;;5089707;28;20762;-72
2024/02/22 02:45:35;;;;;;;9.65;8.75;;;9.30;99.90;;;;;;5087767;28;20210;-72
2024/02/22 02:48:02;;;;;;;12.02;10.73;;;9.30;99.90;;;;;;5084089;28;20657;-72
2024/02/22 02:50:29;;;;;;;12.05;9.23;;;9.30;99.90;;;;;;5077269;28;20196;-75
2024/02/22 02:52:56;;;;;;;12.70;11.40;;;9.20;99.90;;;;;;5083305;28;20242;-74
2024/02/22 02:55:26;;;;;;;14.20;12.63;;;9.20;99.90;;;;;;5080387;28;20199;-74
2024/02/22 02:57:54;;;;;;;14.95;13.55;;;9.20;99.90;;;;;;5075853;28;20203;-75
2024/02/22 03:00:22;;;;;;;14.57;13.13;;;9.20;99.90;;;;;;5077596;28;20277;-74
2024/02/22 03:02:49;;;;;;;12.50;11.23;;;9.30;99.90;;;;;;5073245;28;20220;-74
2024/02/22 03:05:16;;;;;;;11.88;10.70;;;9.30;99.90;;;;;;5083145;28;20722;-73
2024/02/22 03:07:43;;;;;;;15.68;13.80;;;9.30;99.90;;;;;;5086375;28;20304;-73
2024/02/22 03:10:10;;;;;;;13.43;12.02;;;9.30;99.90;;;;;;5078975;28;20543;-73
2024/02/22 03:12:37;;;;;;;12.35;11.15;;;9.40;99.90;;;;;;5081162;28;20222;-73
2024/02/22 03:15:06;;;;;;;12.43;11.25;;;9.40;99.90;;;;;;5078883;28;20214;-73
2024/02/22 03:17:34;;;;;;;14.05;12.60;;;9.40;99.90;;;;;;5074477;28;20209;-74
2024/02/22 03:20:04;;;;;;;11.75;10.55;;;9.40;99.90;;;;;;5086321;28;20247;-74
2024/02/22 03:22:31;;;;;;;16.52;13.38;;;9.40;99.90;;;;;;5075717;28;20784;-71
2024/02/22 03:24:58;;;;;;;13.98;12.25;;;9.40;99.90;;;;;;5077718;28;20628;-73
2024/02/22 03:27:25;;;;;;;12.63;11.43;;;9.40;99.90;;;;;;5083691;28;20282;-75
2024/02/22 03:29:52;;;;;;;12.88;11.68;;;9.40;99.90;;;;;;5076743;28;20263;-76
2024/02/22 03:32:19;;;;;;;12.82;11.52;;;9.40;99.90;;;;;;5076029;28;20227;-76
2024/02/22 03:34:48;;;;;;;13.30;11.90;;;9.40;99.90;;;;;;5073461;28;20226;-71
2024/02/22 03:37:15;;;;;;;11.93;10.73;;;9.50;99.90;;;;;;5084726;28;20199;-73
2024/02/22 03:39:48;;;;;;;14.27;12.77;;;9.50;99.90;;;;;;5073132;28;20223;-75
2024/02/22 03:42:15;;;;;;;16.10;13.45;;;9.50;99.90;;;;;;5065181;28;20206;-76
2024/02/22 03:44:42;;;;;;;14.13;12.75;;;9.50;99.90;;;;;;5078702;28;20202;-73
2024/02/22 03:47:11;;;;;;;13.88;12.55;;;9.50;99.90;;;;;;5072870;28;20203;-72
2024/02/22 03:49:38;;;;;;;15.95;14.25;;;9.60;99.90;;;;;;5083868;28;20256;-72
2024/02/22 03:52:07;;;;;;;15.88;14.30;;;9.60;99.90;;;;;;5082989;28;20641;-74
2024/02/22 03:54:36;;;;;;;14.70;13.18;;;9.60;99.90;;;;;;5073190;28;20289;-72
2024/02/22 03:57:03;;;;;;;16.55;13.63;;;9.70;99.90;;;;;;5072632;28;20648;-73
2024/02/22 03:59:30;;;;;;;15.00;13.60;;;9.70;99.90;;;;;;5077571;28;20700;-76
2024/02/22 04:01:57;;;;;;;15.07;13.48;;;9.70;99.90;;;;;;5086201;28;20290;-72
2024/02/22 04:04:24;;;;;;;15.57;14.07;;;9.60;99.90;;;;;;5081621;28;20223;-73
2024/02/22 04:06:51;;;;;;;14.10;12.32;;;9.70;99.90;;;;;;5089435;28;20199;-74
2024/02/22 04:09:20;;;;;;;17.40;15.55;;;9.70;99.90;;;;;;5076023;28;20203;-73
2024/02/22 04:11:47;;;;;;;18.00;15.57;;;9.70;99.90;;;;;;5072213;28;20263;-75
2024/02/22 04:14:14;;;;;;;18.38;14.50;;;9.80;99.90;;;;;;5083688;28;20627;-75
2024/02/22 04:16:41;;;;;;;13.13;11.65;;;9.70;99.90;;;;;;5084678;28;20206;-72
2024/02/22 04:19:08;;;;;;;16.27;13.80;;;9.80;99.90;;;;;;5087440;28;20263;-72
2024/02/22 04:21:41;;;;;;;17.42;14.25;;;9.70;99.90;;;;;;5081140;28;20256;-73
2024/02/22 04:24:08;;;;;;;13.70;12.30;;;9.70;99.90;;;;;;5076392;28;20301;-73
2024/02/22 04:26:48;;;;;;;16.88;13.45;;;9.70;99.90;;;;;;5082050;28;20252;-73
2024/02/22 04:29:15;;;;;;;14.98;12.95;;;9.60;99.90;;;;;;5059236;28;20276;-75
2024/02/22 04:31:43;;;;;;;16.67;13.60;;;9.70;99.90;;;;;;5083078;28;20294;-74
2024/02/22 04:34:10;;;;;;;14.10;12.45;;;9.70;99.90;;;;;;5089339;28;20747;-74
2024/02/22 04:36:40;;;;;;;17.48;13.57;;;9.70;99.90;;;;;;5077452;28;20282;-74
2024/02/22 04:39:07;;;;;;;11.32;9.52;;;9.70;99.90;;;;;;5082057;28;20261;-74
2024/02/22 04:41:34;;;;;;;14.27;11.98;;;9.70;99.90;;;;;;5076324;28;20658;-74
2024/02/22 04:44:02;;;;;;;16.98;13.57;;;9.70;99.90;;;;;;5081759;28;20241;-74
2024/02/22 04:46:29;;;;;;;14.07;12.13;;;9.70;99.90;;;;;;5077397;28;20196;-73
2024/02/22 04:48:59;;;;;;;12.57;10.32;;;9.70;99.90;;;;;;5081430;28;20614;-73
2024/02/22 04:51:26;;;;;;;15.80;11.93;;;9.70;99.90;;;;;;5082608;28;20743;-72
2024/02/22 04:53:52;;;;;;;15.93;12.80;;;9.80;99.90;;;;;;5085244;28;20222;-72
2024/02/22 04:56:19;;;;;;;11.18;9.90;;;9.70;99.90;;;;;;5092799;28;20195;-72
2024/02/22 04:58:47;;;;;;;16.73;11.43;;;9.80;99.90;;;;;;5082716;28;20215;-74
2024/02/22 05:01:16;;;;;;;15.55;11.90;;;9.80;99.90;;;;;;5077599;28;20195;-73
2024/02/22 05:03:44;;;;;;;13.68;11.30;;;9.80;99.90;;;;;;5085861;28;20313;-75
2024/02/22 05:06:12;;;;;;;13.98;12.32;;;9.90;99.90;;;;;;5078419;28;20199;-76
2024/02/22 05:08:39;;;;;;;13.25;11.00;;;9.80;99.90;;;;;;5075597;28;20204;-72
2024/02/22 05:11:07;;;;;;;17.00;11.90;;;9.80;99.90;;;;;;5080423;28;20202;-74
2024/02/22 05:13:34;;;;;;;17.45;10.98;;;9.80;99.90;;;;;;5087838;28;20302;-73
2024/02/22 05:16:01;;;;;;;15.15;12.55;;;9.80;99.90;;;;;;5081055;28;20264;-75
2024/02/22 05:18:30;;;;;;;14.10;12.30;;;9.80;99.90;;;;;;5075066;28;20252;-73
2024/02/22 05:20:57;;;;;;;13.60;11.63;;;9.80;99.90;;;;;;5075401;28;20223;-74
2024/02/22 05:23:25;;;;;;;16.10;12.88;;;9.90;99.90;;;;;;5087993;28;20774;-75
2024/02/22 05:25:52;;;;;;;16.50;12.25;;;9.80;99.90;;;;;;5086494;28;20199;-73
2024/02/22 05:28:19;;;;;;;14.98;11.05;;;9.90;99.90;;;;;;5078432;28;20739;-73
2024/02/22 05:30:46;;;;;;;12.32;10.07;;;10.00;99.90;;;;;;5083756;28;20199;-73
2024/02/22 05:33:13;;;;;;;13.20;11.00;;;10.00;99.90;;;;;;5082051;28;20219;-74
2024/02/22 05:35:42;;;;;;;12.00;9.82;;;10.00;99.90;;;;;;5088103;28;20260;-75
2024/02/22 05:38:09;;;;;;;13.93;12.35;;;10.00;99.90;;;;;;5078461;28;20207;-70
2024/02/22 05:40:38;;;;;;;10.93;8.60;;;10.10;99.90;;;;;;5074718;28;20223;-72
2024/02/22 05:43:05;;;;;;;13.05;10.75;;;10.10;99.90;;;;;;5076837;28;20223;-72
2024/02/22 05:45:41;;;;;;;10.63;7.95;;;10.20;99.90;;;;;;5074636;28;20284;-72
2024/02/22 05:48:08;;;;;;;12.05;10.27;;;10.20;99.90;;;;;;5079823;28;20199;-73
2024/02/22 05:50:37;;;;;;;10.32;9.10;;;10.20;99.90;;;;;;5082650;28;20285;-72
2024/02/22 05:53:05;;;;;;;12.27;10.50;;;10.30;99.90;;;;;;5078694;28;20279;-71
2024/02/22 05:55:32;;;;;;;11.95;9.50;;;10.10;99.90;;;;;;5080034;28;20257;-71
2024/02/22 05:58:00;;;;;;;12.40;9.20;;;10.10;99.90;;;;;;5088060;28;20203;-71
2024/02/22 06:00:27;;;;;;;13.60;12.10;;;10.10;99.90;;;;;;5074922;28;20265;-74
2024/02/22 06:02:54;;;;;;;12.75;10.25;;;10.10;99.90;;;;;;5080803;28;20222;-74
2024/02/22 06:05:22;;;;;;;12.77;10.15;;;10.20;99.90;;;;;;5078338;28;20208;-74
2024/02/22 06:07:48;;;;;;;14.38;10.30;;;10.10;99.90;;;;;;5075137;28;20200;-75
2024/02/22 06:10:18;;;;;;;14.48;10.60;;;10.10;99.90;;;;;;5078825;28;20191;-75
2024/02/22 06:12:45;;;;;;;15.15;12.07;;;10.10;99.90;;;;;;5079153;28;20229;-75
2024/02/22 06:15:12;;;;;;;17.92;13.40;;;10.10;99.90;;;;;;5073996;28;20203;-72
2024/02/22 06:17:39;;;;;;;20.10;12.65;;;10.10;99.90;;;;;;5074703;28;20261;-74
2024/02/22 06:20:07;;;;;;;14.38;11.38;;;10.00;99.90;;;;;;5077772;28;20215;-73
2024/02/22 06:22:34;;;;;;;15.70;11.48;;;10.10;99.90;;;;;;5074030;28;20219;-74
2024/02/22 06:25:01;;;;;;;18.48;13.35;;;10.20;99.90;;;;;;5075207;28;20207;-72
2024/02/22 06:27:31;;;;;;;16.40;13.07;;;10.20;99.90;;;;;;5074908;28;20204;-73
2024/02/22 06:29:58;;;;;;;17.77;12.98;;;10.20;99.90;;;;;;5076448;28;20199;-73
2024/02/22 06:32:26;;;;;;;17.75;11.95;;;10.20;99.90;;;;;;5075124;28;20195;-74
2024/02/22 06:34:53;;;;;;;18.80;14.10;;;10.20;99.90;;;;;;5073342;28;20252;-73
2024/02/22 06:37:20;;;;;;;23.25;14.75;;;10.20;99.90;;;;;;5074488;28;20199;-72
2024/02/22 06:39:46;;;;;;;19.27;14.80;;;10.20;99.90;;;;;;5085882;28;20249;-72
2024/02/22 06:42:13;;;;;;;18.63;11.93;;;10.30;99.90;;;;;;5079730;28;20195;-74
2024/02/22 06:44:44;;;;;;;18.63;14.52;;;10.30;99.90;;;;;;5072899;28;20261;-74
2024/02/22 06:47:12;;;;;;;23.85;13.35;;;10.30;99.90;;;;;;5075507;28;20239;-74
2024/02/22 06:49:39;;;;;;;21.08;15.45;;;10.30;99.90;;;;;;5073527;28;20207;-73
2024/02/22 06:52:07;;;;;;;15.68;12.77;;;10.30;99.90;;;;;;5080193;28;20199;-73
2024/02/22 06:54:35;;;;;;;15.95;13.38;;;10.40;99.90;;;;;;5073320;28;20235;-72
2024/02/22 06:57:03;;;;;;;22.42;13.73;;;10.30;99.90;;;;;;5078115;28;20654;-71
2024/02/22 06:59:30;;;;;;;24.42;16.05;;;10.30;99.90;;;;;;5076482;28;20581;-72
2024/02/22 07:01:58;;;;;;;14.10;10.23;;;10.30;99.90;;;;;;5083604;28;20271;-72
2024/02/22 07:04:25;;;;;;;21.00;14.40;;;10.30;99.90;;;;;;5074936;28;20239;-74
2024/02/22 07:06:52;;;;;;;16.38;12.52;;;10.40;99.90;;;;;;5072731;28;20203;-75
2024/02/22 07:09:19;;;;;;;20.98;14.90;;;10.40;99.90;;;;;;5073333;28;20204;-71
2024/02/22 07:11:46;;;;;;;25.10;14.95;;;10.40;99.90;;;;;;5072015;28;20266;-74
2024/02/22 07:14:13;;;;;;;17.25;13.35;;;10.40;99.90;;;;;;5080881;28;20219;-71
2024/02/22 07:16:41;;;;;;;24.42;16.52;;;10.40;99.90;;;;;;5086142;28;20245;-75
2024/02/22 07:19:09;;;;;;;19.65;13.65;;;10.40;99.90;;;;;;5082208;28;20195;-74
2024/02/22 07:21:37;;;;;;;17.55;12.65;;;10.50;99.90;;;;;;5075911;28;20296;-75
2024/02/22 07:24:04;;;;;;;15.13;13.48;;;10.50;99.90;;;;;;5079109;28;20866;-76
2024/02/22 07:26:31;;;;;;;16.48;12.45;;;10.60;99.90;;;;;;5076194;28;20208;-73
2024/02/22 07:28:58;;;;;;;16.92;12.60;;;10.60;99.90;;;;;;5080429;28;20569;-75
2024/02/22 07:31:26;;;;;;;17.83;12.68;;;10.60;99.90;;;;;;5074601;28;20278;-74
2024/02/22 07:33:53;;;;;;;20.17;15.85;;;10.60;99.90;;;;;;5077917;28;20223;-75
2024/02/22 07:36:22;;;;;;;13.32;11.52;;;10.70;99.90;;;;;;5084561;28;20200;-75
2024/02/22 07:38:49;;;;;;;21.35;15.95;;;10.80;99.90;;;;;;5080597;28;20368;-72
2024/02/22 07:41:16;;;;;;;15.95;12.10;;;10.90;99.90;;;;;;5078229;28;20713;-75
2024/02/22 07:43:43;;;;;;;18.80;14.15;;;10.90;99.90;;;;;;5073540;28;20336;-71
2024/02/22 07:46:12;;;;;;;15.52;11.43;;;10.90;99.90;;;;;;5075332;28;20653;-72
2024/02/22 07:48:40;;;;;;;14.50;11.32;;;10.80;99.90;;;;;;5077188;28;20660;-75
2024/02/22 07:51:07;;;;;;;19.48;13.40;;;10.80;99.90;;;;;;5082311;28;20194;-73
2024/02/22 07:53:37;;;;;;;16.80;13.82;;;10.80;99.90;;;;;;5074400;28;20223;-70
2024/02/22 07:56:04;;;;;;;16.08;12.77;;;10.80;99.90;;;;;;5072916;28;20719;-72
2024/02/22 07:58:34;;;;;;;13.25;10.45;;;10.90;99.90;;;;;;5073328;28;20199;-74
2024/02/22 08:01:01;;;;;;;10.70;8.60;;;11.00;99.90;;;;;;5079150;28;20632;-73
2024/02/22 08:03:28;;;;;;;12.05;9.25;;;11.00;99.90;;;;;;5073865;28;20215;-73
2024/02/22 08:05:55;;;;;;;12.85;9.90;;;11.00;99.90;;;;;;5079403;28;20203;-71
2024/02/22 08:08:22;;;;;;;13.75;9.95;;;11.00;99.90;;;;;;5083766;28;20276;-74
2024/02/22 08:10:51;;;;;;;13.02;10.15;;;11.10;99.90;;;;;;5087580;28;20604;-73
2024/02/22 08:13:18;;;;;;;15.23;11.35;;;11.10;99.90;;;;;;5089467;28;20280;-73
2024/02/22 08:15:45;;;;;;;14.75;9.73;;;11.00;99.90;;;;;;5081928;28;20203;-72
2024/02/22 08:18:12;;;;;;;12.18;8.77;;;11.10;99.90;;;;;;5079464;28;20673;-72
2024/02/22 08:20:40;;;;;;;10.85;8.30;;;11.20;99.90;;;;;;5094326;28;20215;-74
2024/02/22 08:23:08;;;;;;;8.80;7.35;;;11.30;99.90;;;;;;5081222;28;20227;-71
2024/02/22 08:25:37;;;;;;;11.63;8.98;;;11.40;99.90;;;;;;5080806;28;20691;-72
2024/02/22 08:28:08;;;;;;;12.48;8.85;;;11.30;99.90;;;;;;5077339;28;20665;-74
2024/02/22 08:30:35;;;;;;;12.60;8.05;;;11.40;99.90;;;;;;5087068;28;20721;-72
2024/02/22 08:33:02;;;;;;;12.10;8.27;;;11.40;99.90;;;;;;5087868;28;20313;-74
2024/02/22 08:35:30;;;;;;;17.17;9.45;;;11.30;99.90;;;;;;5079677;28;20265;-73
2024/02/22 08:37:56;;;;;;;9.82;7.35;;;11.40;99.90;;;;;;5079865;28;20256;-73
2024/02/22 08:40:23;;;;;;;10.65;8.65;;;11.50;99.90;;;;;;5076850;28;20556;-73
2024/02/22 08:42:53;;;;;;;12.38;8.60;;;11.50;99.90;;;;;;5083788;28;20223;-71
2024/02/22 08:45:22;;;;;;;12.15;8.57;;;11.50;99.90;;;;;;5075620;28;20202;-74
2024/02/22 08:47:49;;;;;;;13.45;8.38;;;11.60;99.90;;;;;;5083413;28;20203;-71
2024/02/22 08:50:17;;;;;;;12.40;8.63;;;11.90;99.90;;;;;;5088606;28;20676;-74
2024/02/22 08:52:45;;;;;;;12.40;9.90;;;12.30;99.90;;;;;;5084399;28;20226;-76
2024/02/22 08:55:13;;;;;;;11.15;8.88;;;12.30;99.90;;;;;;5087171;28;20629;-71
2024/02/22 08:57:40;;;;;;;16.50;10.65;;;12.30;99.90;;;;;;5077486;28;20249;-76
2024/02/22 09:00:10;;;;;;;18.95;10.50;;;12.30;99.90;;;;;;5084860;28;20214;-73
2024/02/22 09:02:39;;;;;;;16.27;10.57;;;12.20;99.90;;;;;;5084611;28;20226;-72
2024/02/22 09:05:06;;;;;;;15.60;10.73;;;12.20;99.90;;;;;;5084330;28;20203;-75
2024/02/22 09:07:34;;;;;;;15.20;11.02;;;12.30;99.90;;;;;;5074998;28;20662;-74
2024/02/22 09:10:01;;;;;;;13.40;10.02;;;12.40;99.90;;;;;;5083625;28;20246;-74
2024/02/22 09:12:29;;;;;;;15.10;12.77;;;12.30;99.90;;;;;;5079655;28;20640;-73
2024/02/22 09:14:56;;;;;;;14.80;11.05;;;12.10;99.90;;;;;;5076193;28;20199;-72
2024/02/22 09:17:23;;;;;;;15.25;11.32;;;12.10;99.90;;;;;;5083682;28;20215;-75
2024/02/22 09:19:51;;;;;;;17.40;12.00;;;12.10;99.90;;;;;;5077078;28;20666;-73
2024/02/22 09:22:20;;;;;;;17.33;12.55;;;11.90;99.90;;;;;;5074263;28;20215;-73
2024/02/22 09:24:47;;;;;;;19.42;10.65;;;12.00;99.90;;;;;;5075571;28;20646;-74
2024/02/22 09:27:14;;;;;;;15.57;11.50;;;12.10;99.90;;;;;;5084569;28;20199;-73
2024/02/22 09:29:43;;;;;;;16.15;9.50;;;12.00;99.90;;;;;;5078592;28;20199;-74
2024/02/22 09:32:11;;;;;;;17.00;11.13;;;12.10;99.90;;;;;;5077696;28;20202;-75
2024/02/22 09:34:38;;;;;;;19.13;12.45;;;12.00;99.90;;;;;;5078050;28;20648;-74
2024/02/22 09:37:07;;;;;;;16.92;11.80;;;11.90;99.90;;;;;;5075609;28;20253;-73
2024/02/22 09:39:33;;;;;;;21.23;13.95;;;12.00;99.90;;;;;;5081618;28;20235;-70
2024/02/22 09:42:01;;;;;;;19.70;11.73;;;11.90;99.90;;;;;;5077999;28;20223;-72
2024/02/22 09:44:32;;;;;;;13.90;10.27;;;12.20;99.90;;;;;;5085108;28;20217;-73
2024/02/22 09:47:01;;;;;;;26.15;15.05;;;12.50;99.90;;;;;;5081856;28;20203;-73
2024/02/22 09:49:27;;;;;;;14.23;12.05;;;12.80;99.90;;;;;;5085308;28;20207;-73
2024/02/22 09:51:56;;;;;;;19.45;13.75;;;13.20;99.90;;;;;;5082712;28;20199;-75
2024/02/22 09:54:25;;;;;;;17.38;12.75;;;13.40;99.90;;;;;;5082824;28;20746;-74
2024/02/22 09:56:53;;;;;;;13.80;10.73;;;13.30;99.90;;;;;;5075035;28;20565;-72
2024/02/22 09:59:20;;;;;;;16.88;12.02;;;13.80;99.90;;;;;;5081782;28;20219;-74
2024/02/22 10:01:47;;;;;;;13.40;10.15;;;14.20;99.90;;;;;;5074362;28;20223;-71
2024/02/22 10:04:19;;;;;;;13.05;11.15;;;14.10;99.90;;;;;;5078796;28;20265;-72
2024/02/22 10:06:47;;;;;;;13.65;10.65;;;13.80;99.90;;;;;;5086892;28;20206;-74
2024/02/22 10:09:16;;;;;;;17.45;12.10;;;14.00;99.90;;;;;;5083201;28;20203;-72
2024/02/22 10:11:46;;;;;;;17.55;11.93;;;13.90;99.90;;;;;;5085133;28;20207;-71
2024/02/22 10:14:14;;;;;;;12.35;9.90;;;14.00;99.90;;;;;;5078466;28;20700;-75
2024/02/22 10:16:41;;;;;;;13.77;11.00;;;13.90;99.90;;;;;;5074852;28;20257;-71
2024/02/22 10:19:12;;;;;;;17.58;12.10;;;13.60;99.90;;;;;;5074563;28;20658;-73
2024/02/22 10:21:39;;;;;;;20.42;11.73;;;13.70;99.90;;;;;;5084401;28;20300;-72
2024/02/22 10:24:08;;;;;;;19.25;12.00;;;13.60;99.90;;;;;;5082402;28;20756;-73
2024/02/22 10:26:35;;;;;;;15.68;11.15;;;13.70;99.90;;;;;;5081263;28;20221;-72
2024/02/22 10:29:07;;;;;;;10.95;8.75;;;13.70;99.90;;;;;;5074751;28;20670;-72
2024/02/22 10:31:42;;;;;;;20.52;11.63;;;13.80;99.90;;;;;;5079000;28;20241;-75
2024/02/22 10:34:10;;;;;;;17.80;9.43;;;13.50;99.90;;;;;;5075789;28;20219;-73
2024/02/22 10:36:38;;;;;;;19.80;10.38;;;13.70;99.90;;;;;;5076503;28;20203;-72
2024/02/22 10:39:05;;;;;;;17.80;11.13;;;13.60;99.90;;;;;;5079285;28;20214;-71
2024/02/22 10:41:33;;;;;;;15.75;9.32;;;13.70;99.90;;;;;;5087663;28;20309;-73
2024/02/22 10:44:02;;;;;;;16.80;10.43;;;13.80;99.90;;;;;;5089217;28;20219;-73
2024/02/22 10:46:35;;;;;;;12.10;9.07;;;13.80;99.90;;;;;;5078320;28;20196;-71
2024/02/22 10:49:06;;;;;;;15.27;10.32;;;13.80;99.90;;;;;;5078667;28;20203;-74
2024/02/22 10:51:35;;;;;;;13.00;8.60;;;13.70;99.90;;;;;;5083042;28;20192;-73
2024/02/22 10:54:04;;;;;;;18.50;10.15;;;13.60;99.90;;;;;;5076011;28;20222;-73
2024/02/22 10:56:34;;;;;;;13.25;9.15;;;13.50;99.90;;;;;;5075123;28;20753;-72
2024/02/22 10:59:06;;;;;;;16.83;9.10;;;13.50;99.90;;;;;;5077900;28;20718;-73
2024/02/22 11:01:37;;;;;;;18.08;9.35;;;13.70;99.90;;;;;;5084278;28;20268;-71
2024/02/22 11:04:05;;;;;;;16.20;10.10;;;13.80;99.90;;;;;;5080177;28;20219;-73
2024/02/22 11:06:39;;;;;;;20.55;10.00;;;13.60;99.90;;;;;;5073062;28;20205;-72
2024/02/22 11:09:17;;;;;;;16.45;9.27;;;13.90;99.90;;;;;;5078314;28;20198;-74
2024/02/22 11:11:45;;;;;;;13.55;8.70;;;14.10;99.90;;;;;;5074480;28;20243;-75
2024/02/22 11:14:13;;;;;;;13.88;8.65;;;14.10;99.90;;;;;;5079245;28;20233;-75
2024/02/22 11:16:43;;;;;;;13.85;8.50;;;14.40;99.90;;;;;;5082827;28;20206;-75
2024/02/22 11:19:12;;;;;;;17.30;9.07;;;14.50;99.90;;;;;;5087492;28;20205;-72
2024/02/22 11:21:39;;;;;;;14.40;7.70;;;14.80;99.90;;;;;;5086324;28;20227;-73
2024/02/22 11:24:11;;;;;;;12.10;8.40;;;15.20;99.90;;;;;;5084871;28;20565;-73
2024/02/22 11:26:38;;;;;;;10.93;7.75;;;15.10;99.90;;;;;;5076812;28;20511;-70
2024/02/22 11:29:05;;;;;;;10.57;7.38;;;15.20;99.90;;;;;;5074347;28;20719;-75
2024/02/22 11:31:32;;;;;;;12.63;7.50;;;15.20;99.90;;;;;;5072254;28;20195;-73
2024/02/22 11:34:01;;;;;;;15.03;8.93;;;15.20;99.90;;;;;;5080597;28;20765;-75
2024/02/22 11:36:30;;;;;;;12.73;7.20;;;15.00;99.90;;;;;;5080345;28;20444;-72
2024/02/22 11:39:00;;;;;;;15.10;9.15;;;14.90;99.90;;;;;;5081278;28;20484;-73
2024/02/22 11:41:30;;;;;;;14.03;7.70;;;15.00;99.90;;;;;;5071566;28;20231;-75
2024/02/22 11:44:04;;;;;;;15.77;8.88;;;15.20;99.90;;;;;;5073937;28;20515;-73
2024/02/22 11:46:34;;;;;;;11.37;8.40;;;15.10;99.90;;;;;;5080774;28;20531;-72
2024/02/22 11:49:04;;;;;;;13.77;8.52;;;14.90;99.90;;;;;;5074072;28;20977;-71
2024/02/22 11:51:31;;;;;;;15.43;9.35;;;14.70;99.90;;;;;;5071871;28;20264;-71
2024/02/22 11:53:59;;;;;;;8.70;7.28;;;14.60;99.90;;;;;;5081261;28;20697;-73
2024/02/22 11:56:26;;;;;;;13.60;9.27;;;14.60;99.90;;;;;;5083944;28;20199;-71
2024/02/22 11:58:54;;;;;;;14.05;8.80;;;14.60;99.90;;;;;;5077809;28;20215;-73
2024/02/22 12:01:22;;;;;;;12.52;9.85;;;14.40;99.90;;;;;;5072867;28;20234;-75
2024/02/22 12:03:51;;;;;;;16.90;9.02;;;14.30;99.90;;;;;;5074128;28;20227;-74
2024/02/22 12:06:20;;;;;;;13.38;9.13;;;14.30;99.90;;;;;;5081513;28;20208;-71
2024/02/22 12:08:49;;;;;;;9.10;7.70;;;14.40;99.90;;;;;;5080971;28;20234;-72
2024/02/22 12:11:16;;;;;;;11.32;8.70;;;14.60;99.90;;;;;;5071929;28;20305;-72
2024/02/22 12:13:54;;;;;;;14.63;10.80;;;14.60;99.90;;;;;;5076588;28;20292;-71
2024/02/22 12:16:21;;;;;;;13.68;7.55;;;14.60;99.90;;;;;;5083779;28;20226;-70
2024/02/22 12:18:48;;;;;;;17.33;11.37;;;14.60;99.90;;;;;;5077021;28;20203;-71
2024/02/22 12:21:15;;;;;;;18.58;9.10;;;14.40;99.90;;;;;;5078367;28;20485;-72
2024/02/22 12:23:43;;;;;;;13.15;10.70;;;14.40;99.90;;;;;;5079637;28;20219;-72
2024/02/22 12:26:10;;;;;;;16.48;8.63;;;14.30;99.90;;;;;;5072322;28;20610;-74
2024/02/22 12:28:38;;;;;;;15.68;9.02;;;14.20;99.90;;;;;;5075725;28;20612;-72
2024/02/22 12:31:05;;;;;;;10.57;7.90;;;14.00;99.90;;;;;;5075785;28;20221;-73
2024/02/22 12:33:34;;;;;;;8.55;7.63;;;14.00;99.90;;;;;;5082058;28;20694;-71
2024/02/22 12:36:02;;;;;;;8.95;8.15;;;14.10;99.90;;;;;;5077689;28;20248;-73
2024/02/22 12:38:29;;;;;;;10.48;7.82;;;14.00;99.90;;;;;;5074451;28;20227;-73
2024/02/22 12:40:57;;;;;;;11.57;8.23;;;14.00;99.90;;;;;;5074193;28;20226;-71